Gongxian, China
Current Conditions -  °F | °C
As of 6:00 PM on Sunday 21 Dec 2014 (Local Time) from ZHCC Reporting Station
Clear Clear  
Wind Chill: 32°   Ceiling: Unl
Heat Index: 37°   Visibility: 6mi
Dew Point: -6°   Wind: 7mph
Humidity: 16%   Direction: 250°WSW
Pressure: 30.39"   Gusts: NA
Location:  34.77°N, 112.95°E
Report Text: ZHCC 211000Z 25003MPS 210V280 CAVOK 03/M21 Q1029 NOSIG
Loading
Personal Weather Stations






























Interactive Weather Map New forecast layout! Learn more

10-Day Weather Forecast

Advertisements
Track Severe Weather on mobile